Terminal Aerodrome Forecast
Issued by NWS

Home | Current Version | Previous Version | Text Only | Print | Product List | Glossary On
Versions: 1 2 3 4 5 6 7 8 9 10 11 12 13 14 15 16 17 18 19
000
FTUS43 KABR 281740
TAFPIR
TAF
KPIR 281740Z 2818/2918 19007KT P6SM SCT050 SCT200
     FM282100 17008KT P6SM VCTS SCT050CB
     FM290300 34006KT P6SM VCSH OVC050=

USA.gov is the U.S. government's official web portal to all federal, state and local government web resources and services.